Time;durP1;ratioP1;P1;durP2;ratioP2;P2;SDS_P1;SDS_P2;PMS_P1;PMS_P2;Temp;Humidity;BMP_temperature;BMP_pressure;BME280_temperature;BME280_humidity;BME280_pressure;Samples;Min_cycle;Max_cycle;Signal;HPM_P1;HPM_P2
2022/12/22 03:27:10;;;;;;;73.00;35.20;;;;;;;-1.46;nan;95257.69;5053128;28;20204;-62
2022/12/22 03:29:37;;;;;;;84.97;35.70;;;;;;;-1.50;nan;95256.81;5053964;28;20257;-62
2022/12/22 03:32:04;;;;;;;68.23;32.93;;;;;;;-1.48;nan;95246.84;5055433;28;20687;-61
2022/12/22 03:34:32;;;;;;;70.80;33.40;;;;;;;-1.43;nan;95256.06;5055415;28;20302;-61
2022/12/22 03:36:59;;;;;;;81.03;35.53;;;;;;;-1.44;nan;95251.06;5054045;28;20202;-62
2022/12/22 03:39:25;;;;;;;64.53;34.43;;;;;;;-1.55;nan;95260.88;5055262;28;20206;-62
2022/12/22 03:47:22;;;;;;;64.17;31.93;;;;;;;-1.46;nan;95261.00;5054641;28;20575;-66
2022/12/22 03:49:50;;;;;;;66.10;29.70;;;;;;;-1.57;nan;95257.53;5054326;28;20780;-64
2022/12/22 03:52:17;;;;;;;63.10;33.50;;;;;;;-1.57;nan;95269.16;5055112;28;20205;-62
2022/12/22 03:54:44;;;;;;;88.03;32.03;;;;;;;-1.63;nan;95257.41;5053727;28;20309;-62
2022/12/22 03:57:10;;;;;;;57.03;30.90;;;;;;;-1.53;nan;95259.25;5054458;28;20197;-63
2022/12/22 03:59:37;;;;;;;65.93;31.23;;;;;;;-1.47;nan;95254.34;5055306;28;20213;-63
2022/12/22 04:02:04;;;;;;;65.00;31.67;;;;;;;-1.45;nan;95255.22;5054653;28;20267;-63
2022/12/22 04:04:31;;;;;;;60.30;30.50;;;;;;;-1.50;nan;95248.50;5054251;28;20198;-63
2022/12/22 04:06:59;;;;;;;62.33;30.63;;;;;;;-1.56;nan;95244.25;5053701;28;21765;-62
2022/12/22 04:09:26;;;;;;;63.30;29.60;;;;;;;-1.54;nan;95255.09;5054598;28;22416;-62
2022/12/22 04:14:38;;;;;;;60.63;29.30;;;;;;;-1.53;nan;95249.28;5055071;28;20240;-63
2022/12/22 04:17:06;;;;;;;57.47;28.20;;;;;;;-1.50;nan;95254.31;5053771;28;20208;-62
2022/12/22 04:19:34;;;;;;;53.10;26.93;;;;;;;-1.51;nan;95247.66;5054290;28;20201;-63
2022/12/22 04:22:02;;;;;;;52.37;28.23;;;;;;;-1.51;nan;95255.13;5054288;28;20657;-62
2022/12/22 04:24:29;;;;;;;53.17;27.60;;;;;;;-1.46;nan;95250.19;5053951;28;20221;-62
2022/12/22 04:26:55;;;;;;;56.73;28.47;;;;;;;-1.54;nan;95260.06;5052571;28;20329;-62
2022/12/22 04:29:22;;;;;;;57.67;28.27;;;;;;;-1.57;nan;95255.03;5053499;28;20197;-61
2022/12/22 04:31:49;;;;;;;55.53;27.70;;;;;;;-1.61;nan;95250.81;5054285;28;20209;-61
2022/12/22 04:34:16;;;;;;;60.60;27.17;;;;;;;-1.47;nan;95249.34;5053949;28;20787;-61
2022/12/22 04:36:43;;;;;;;51.33;27.07;;;;;;;-1.52;nan;95245.16;5053262;28;20217;-62
2022/12/22 04:39:11;;;;;;;56.60;27.57;;;;;;;-1.60;nan;95241.69;5054086;28;20213;-63
2022/12/22 04:41:38;;;;;;;57.13;26.53;;;;;;;-1.59;nan;95241.72;5054164;28;20216;-63
2022/12/22 04:44:05;;;;;;;52.80;27.40;;;;;;;-1.58;nan;95250.88;5054500;28;20895;-63
2022/12/22 04:46:32;;;;;;;55.27;27.93;;;;;;;-1.53;nan;95258.41;5053356;28;20212;-62
2022/12/22 04:48:58;;;;;;;53.37;27.17;;;;;;;-1.61;nan;95245.84;5053195;28;20211;-62
2022/12/22 04:51:25;;;;;;;49.83;27.13;;;;;;;-1.56;nan;95243.41;5054200;28;20205;-62
2022/12/22 04:53:52;;;;;;;57.70;30.87;;;;;;;-1.56;nan;95248.41;5053725;28;20209;-62
2022/12/22 04:56:20;;;;;;;80.40;36.17;;;;;;;-1.55;nan;95240.94;5053559;28;20202;-61
2022/12/22 04:58:47;;;;;;;60.27;32.80;;;;;;;-1.49;nan;95236.06;5052933;28;20237;-63
2022/12/22 05:01:15;;;;;;;63.60;30.23;;;;;;;-1.41;nan;95239.50;5053708;28;20205;-62
2022/12/22 05:03:43;;;;;;;59.55;27.33;;;;;;;-1.37;nan;95243.72;5053929;28;20225;-62
2022/12/22 05:06:10;;;;;;;45.97;26.55;;;;;;;-1.33;nan;95241.25;5052794;28;20206;-62
2022/12/22 05:08:37;;;;;;;52.47;26.30;;;;;;;-1.37;nan;95238.72;5054715;28;20201;-63
2022/12/22 05:11:04;;;;;;;58.97;28.53;;;;;;;-1.37;nan;95246.19;5052470;28;20236;-62
2022/12/22 05:13:33;;;;;;;59.93;29.60;;;;;;;-1.47;nan;95243.53;5053525;28;20197;-62
2022/12/22 05:16:05;;;;;;;68.53;30.93;;;;;;;-1.45;nan;95255.22;5052943;28;20628;-62
2022/12/22 05:18:33;;;;;;;53.03;28.23;;;;;;;-1.46;nan;95251.03;5053495;28;20213;-62
2022/12/22 05:21:02;;;;;;;62.00;28.95;;;;;;;-1.33;nan;95251.25;5052298;28;20202;-62
2022/12/22 05:23:29;;;;;;;54.20;28.02;;;;;;;-1.32;nan;95257.91;5053283;28;20242;-62
2022/12/22 05:25:56;;;;;;;51.92;26.98;;;;;;;-1.33;nan;95262.03;5052167;28;20211;-62
2022/12/22 05:28:23;;;;;;;46.63;24.42;;;;;;;-1.36;nan;95266.97;5054102;28;20212;-62
2022/12/22 05:30:52;;;;;;;60.35;30.45;;;;;;;-1.40;nan;95266.09;5053683;28;20283;-64
2022/12/22 05:33:19;;;;;;;85.95;36.53;;;;;;;-1.59;nan;95233.41;5053477;28;20717;-62
2022/12/22 05:35:45;;;;;;;71.55;35.80;;;;;;;-1.40;nan;95256.13;5052394;28;20202;-62
2022/12/22 05:38:12;;;;;;;76.72;30.33;;;;;;;-1.41;nan;95263.56;5053112;28;20687;-62
2022/12/22 05:40:39;;;;;;;58.50;29.37;;;;;;;-1.38;nan;95264.47;5053804;28;20257;-60
2022/12/22 05:43:06;;;;;;;54.03;27.50;;;;;;;-1.35;nan;95265.34;5053110;28;20228;-63
2022/12/22 05:45:32;;;;;;;49.15;25.90;;;;;;;-1.31;nan;95255.44;5052402;28;20216;-61
2022/12/22 05:48:00;;;;;;;46.00;26.27;;;;;;;-1.30;nan;95257.13;5052963;28;20201;-62
2022/12/22 05:50:27;;;;;;;48.20;25.97;;;;;;;-1.30;nan;95256.28;5050517;28;20693;-62
2022/12/22 05:52:54;;;;;;;62.95;28.83;;;;;;;-1.26;nan;95263.81;5051636;28;20216;-61
2022/12/22 05:55:21;;;;;;;46.20;27.73;;;;;;;-1.23;nan;95255.53;5053596;28;20210;-61
2022/12/22 05:57:48;;;;;;;62.92;31.90;;;;;;;-1.25;nan;95249.72;5052770;28;20209;-61
2022/12/22 06:00:16;;;;;;;62.33;29.63;;;;;;;-1.25;nan;95255.53;5053408;28;20202;-63
2022/12/22 06:02:44;;;;;;;61.00;30.85;;;;;;;-1.20;nan;95261.41;5051891;28;20220;-63
2022/12/22 06:05:14;;;;;;;67.78;33.47;;;;;;;-1.14;nan;95263.97;5053088;28;20205;-63
2022/12/22 06:07:41;;;;;;;79.85;35.25;;;;;;;-1.11;nan;95250.72;5052806;28;20667;-62
2022/12/22 06:10:10;;;;;;;86.72;36.95;;;;;;;-0.99;nan;95255.88;5053058;28;20197;-62
2022/12/22 06:12:37;;;;;;;64.38;34.67;;;;;;;-0.91;nan;95258.47;5051405;28;20198;-62
2022/12/22 06:15:05;;;;;;;69.63;35.83;;;;;;;-0.92;nan;95250.16;5052052;28;20235;-62
2022/12/22 06:17:32;;;;;;;64.30;34.92;;;;;;;-0.79;nan;95257.00;5052932;28;20209;-62
2022/12/22 06:19:59;;;;;;;69.67;34.17;;;;;;;-0.69;nan;95262.91;5053185;28;20240;-61
2022/12/22 06:22:27;;;;;;;71.77;33.67;;;;;;;-0.60;nan;95257.22;5051610;28;20206;-64
2022/12/22 06:24:54;;;;;;;70.00;33.40;;;;;;;-0.45;nan;95262.38;5052474;28;20225;-63
2022/12/22 06:27:20;;;;;;;81.57;37.57;;;;;;;-0.25;nan;95260.97;5052357;28;20210;-61
2022/12/22 06:29:47;;;;;;;75.87;36.47;;;;;;;-0.07;nan;95271.13;5052614;28;20213;-62
2022/12/22 06:32:14;;;;;;;81.13;35.33;;;;;;;0.16;nan;95270.53;5052040;28;20210;-61
2022/12/22 06:34:41;;;;;;;71.50;35.70;;;;;;;0.35;nan;95264.88;5052325;28;20415;-62
2022/12/22 06:37:07;;;;;;;82.40;39.60;;;;;;;0.46;nan;95265.81;5053177;28;20275;-62
2022/12/22 06:39:36;;;;;;;83.80;37.13;;;;;;;0.56;nan;95270.03;5052792;28;20306;-63
2022/12/22 06:44:49;;;;;;;78.63;40.57;;;;;;;0.62;nan;95272.59;5052525;28;20251;-62
2022/12/22 06:47:16;;;;;;;73.73;41.47;;;;;;;0.84;nan;95280.25;5052552;28;20216;-62
2022/12/22 06:49:43;;;;;;;88.37;41.67;;;;;;;0.89;nan;95279.47;5052348;28;20206;-61
2022/12/22 06:52:09;;;;;;;75.23;36.57;;;;;;;0.97;nan;95277.03;5051839;28;20204;-62
2022/12/22 06:54:38;;;;;;;79.90;37.90;;;;;;;1.02;nan;95281.22;5052783;28;20684;-60
2022/12/22 06:57:04;;;;;;;74.93;39.23;;;;;;;1.15;nan;95279.63;5052454;28;20715;-62
2022/12/22 06:59:31;;;;;;;78.93;36.80;;;;;;;1.26;nan;95277.19;5052373;28;20210;-61
2022/12/22 07:01:58;;;;;;;80.67;39.07;;;;;;;1.35;nan;95283.09;5051610;28;20201;-63
2022/12/22 07:04:25;;;;;;;77.67;42.23;;;;;;;1.41;nan;95278.94;5053489;28;20656;-63
2022/12/22 07:06:52;;;;;;;82.07;40.97;;;;;;;1.66;nan;95280.72;5055696;28;20231;-62
2022/12/22 07:09:18;;;;;;;72.67;39.83;;;;;;;1.87;nan;95278.28;5055725;28;20666;-62
2022/12/22 07:11:46;;;;;;;89.97;39.87;;;;;;;2.11;nan;95275.00;5055077;28;20206;-63
2022/12/22 07:14:13;;;;;;;72.43;38.40;;;;;;;2.29;nan;95276.72;5054986;28;20678;-63
2022/12/22 07:16:40;;;;;;;79.27;39.07;;;;;;;2.32;nan;95244.13;5056168;28;20214;-62
2022/12/22 07:19:07;;;;;;;82.07;39.37;;;;;;;2.64;nan;95272.56;5056226;28;20629;-61
2022/12/22 07:21:34;;;;;;;75.03;38.00;;;;;;;3.04;nan;95267.53;5055494;28;20209;-64
2022/12/22 07:24:00;;;;;;;65.37;36.23;;;;;;;3.51;nan;95274.09;5054578;28;20218;-64
2022/12/22 07:26:27;;;;;;;70.67;37.83;;;;;;;3.53;nan;95277.47;5055386;28;20228;-61
2022/12/22 07:28:55;;;;;;;77.27;36.87;;;;;;;3.62;nan;95279.94;5055449;28;20202;-62
2022/12/22 07:31:23;;;;;;;67.90;37.65;;;;;;;4.13;nan;95273.03;5055240;28;20848;-62
2022/12/22 07:33:50;;;;;;;70.47;37.97;;;;;;;4.48;nan;95270.28;5053922;28;20660;-62
2022/12/22 07:36:19;;;;;;;77.20;39.63;;;;;;;4.50;nan;95274.44;5055063;28;20631;-63
2022/12/22 07:38:48;;;;;;;102.47;44.35;;;;;;;4.97;nan;95258.13;5055061;28;20239;-63
2022/12/22 07:44:04;;;;;;;120.00;55.42;;;;;;;7.23;nan;95246.75;5047609;28;20386;-61
2022/12/22 07:46:34;;;;;;;120.05;61.10;;;;;;;8.40;nan;95271.47;5054215;28;20739;-62
2022/12/22 07:51:45;;;;;;;134.68;61.70;;;;;;;8.49;nan;95258.56;5053923;28;20262;-63
2022/12/22 07:54:14;;;;;;;118.30;54.70;;;;;;;8.63;nan;95264.19;5054787;28;20202;-63
2022/12/22 07:56:42;;;;;;;129.15;59.58;;;;;;;8.88;nan;95258.53;5055350;28;20695;-63
2022/12/22 07:59:11;;;;;;;106.72;52.63;;;;;;;9.26;nan;95255.88;5055201;28;20205;-62
2022/12/22 08:01:39;;;;;;;146.63;61.83;;;;;;;9.45;nan;95257.06;5054768;28;20604;-62
2022/12/22 08:04:06;;;;;;;139.00;57.67;;;;;;;9.34;nan;95258.25;5053189;28;20225;-62
2022/12/22 08:06:34;;;;;;;102.80;52.40;;;;;;;9.03;nan;95263.22;5050776;28;20844;-63
2022/12/22 08:09:01;;;;;;;136.18;64.88;;;;;;;8.59;nan;95260.06;5054594;28;20210;-62
2022/12/22 08:11:28;;;;;;;135.05;61.42;;;;;;;8.49;nan;95251.81;5054877;28;20228;-61
2022/12/22 08:13:55;;;;;;;113.25;55.88;;;;;;;8.44;nan;95257.84;5053803;28;20280;-62
2022/12/22 08:16:23;;;;;;;106.18;54.33;;;;;;;8.32;nan;95258.97;5051685;28;20206;-61
2022/12/22 08:18:50;;;;;;;108.05;54.80;;;;;;;8.05;nan;95255.28;5055492;28;20209;-59
2022/12/22 08:21:17;;;;;;;96.05;50.08;;;;;;;7.59;nan;95250.31;5052391;28;20205;-62
2022/12/22 08:23:44;;;;;;;105.72;56.97;;;;;;;7.31;nan;95257.56;5053701;28;20228;-62
2022/12/22 08:26:15;;;;;;;116.13;61.22;;;;;;;7.06;nan;95259.69;5053104;28;20637;-61
2022/12/22 08:28:47;;;;;;;131.85;66.22;;;;;;;7.04;nan;95265.63;5053571;28;20206;-60
2022/12/22 08:31:14;;;;;;;140.27;68.43;;;;;;;7.05;nan;95257.19;5054367;28;20309;-61
2022/12/22 08:33:42;;;;;;;131.60;68.97;;;;;;;7.05;nan;95257.19;5053786;28;20655;-62
2022/12/22 08:36:10;;;;;;;131.10;69.68;;;;;;;7.06;nan;95258.84;5049095;28;20206;-62
2022/12/22 08:38:39;;;;;;;138.38;66.05;;;;;;;7.09;nan;95254.56;5052506;28;20221;-61
2022/12/22 08:41:08;;;;;;;137.93;70.05;;;;;;;7.38;nan;95253.22;5053950;28;20210;-61
2022/12/22 08:43:35;;;;;;;160.40;73.53;;;;;;;7.64;nan;95242.63;5052345;28;21977;-62
2022/12/22 08:46:02;;;;;;;149.15;71.80;;;;;;;7.84;nan;95226.19;5051504;28;20639;-61
2022/12/22 08:48:28;;;;;;;134.25;71.65;;;;;;;7.96;nan;95237.75;5051918;28;20852;-61
2022/12/22 08:50:57;;;;;;;134.32;69.60;;;;;;;7.80;nan;95241.47;5051805;28;20237;-63
2022/12/22 08:53:23;;;;;;;134.00;71.35;;;;;;;7.76;nan;95242.38;5052088;28;20213;-62
2022/12/22 08:55:52;;;;;;;129.60;69.20;;;;;;;7.77;nan;95238.97;5047512;28;20537;-61
2022/12/22 08:58:19;;;;;;;141.73;71.78;;;;;;;7.76;nan;95237.31;5050398;28;20205;-62
2022/12/22 09:00:45;;;;;;;136.98;70.03;;;;;;;7.78;nan;95226.31;5052378;28;20205;-63
2022/12/22 09:03:12;;;;;;;130.60;68.88;;;;;;;7.89;nan;95217.69;5050984;28;20210;-63
2022/12/22 09:05:40;;;;;;;139.65;69.72;;;;;;;7.73;nan;95181.72;5052870;28;20244;-66
2022/12/22 09:08:08;;;;;;;133.27;66.80;;;;;;;8.06;nan;95218.16;5051506;28;20286;-63
2022/12/22 09:10:35;;;;;;;120.45;66.60;;;;;;;8.05;nan;95214.78;5050793;28;20206;-62
2022/12/22 09:13:02;;;;;;;129.35;66.57;;;;;;;8.08;nan;95209.66;5052116;28;20221;-62
2022/12/22 09:15:28;;;;;;;132.75;67.90;;;;;;;8.36;nan;95209.09;5051322;28;20267;-60
2022/12/22 09:17:55;;;;;;;122.60;66.38;;;;;;;8.47;nan;95194.47;5051742;28;20202;-61
2022/12/22 09:20:22;;;;;;;116.38;63.40;;;;;;;8.50;nan;95196.94;5050770;28;20698;-64
2022/12/22 09:22:49;;;;;;;114.80;61.25;;;;;;;8.25;nan;95188.19;5048734;28;20216;-61
2022/12/22 09:25:17;;;;;;;107.00;57.53;;;;;;;8.32;nan;95202.38;5049475;28;20229;-61
2022/12/22 09:27:44;;;;;;;119.18;60.72;;;;;;;8.39;nan;95203.94;5047798;28;20301;-64
2022/12/22 09:30:11;;;;;;;117.07;59.60;;;;;;;8.34;nan;95198.16;5050460;28;20201;-63
2022/12/22 09:32:38;;;;;;;111.32;61.88;;;;;;;8.32;nan;95172.00;5050063;28;20204;-62
2022/12/22 09:35:06;;;;;;;110.10;57.67;;;;;;;8.53;nan;95196.84;5051072;28;20760;-62
2022/12/22 09:37:32;;;;;;;109.00;58.40;;;;;;;8.49;nan;95195.25;5051927;28;20206;-61
2022/12/22 09:39:59;;;;;;;107.22;53.70;;;;;;;8.31;nan;95193.13;5051229;28;20216;-61
2022/12/22 09:42:29;;;;;;;101.85;53.00;;;;;;;8.11;nan;95194.41;5051286;28;20315;-62
2022/12/22 09:44:56;;;;;;;85.15;48.88;;;;;;;7.98;nan;95190.47;5051989;28;20264;-62
2022/12/22 09:47:32;;;;;;;80.18;46.08;;;;;;;8.04;nan;95190.34;5052331;28;20210;-62
2022/12/22 09:49:59;;;;;;;85.30;46.38;;;;;;;8.14;nan;95190.97;5049316;28;20301;-63
2022/12/22 09:52:40;;;;;;;80.80;42.72;;;;;;;8.45;nan;95184.38;5052534;28;20202;-61
2022/12/22 09:55:14;;;;;;;86.07;44.50;;;;;;;8.51;nan;95178.31;5051596;28;20213;-63
2022/12/22 09:57:42;;;;;;;67.22;41.33;;;;;;;8.50;nan;95166.53;5052451;28;20209;-62
2022/12/22 10:00:14;;;;;;;91.63;45.60;;;;;;;8.00;nan;95168.50;5050912;28;20201;-62
2022/12/22 10:02:50;;;;;;;85.13;46.15;;;;;;;7.92;nan;95157.69;5051445;28;20759;-61
2022/12/22 10:05:27;;;;;;;91.20;47.70;;;;;;;7.88;nan;95163.72;5051788;28;21647;-61
2022/12/22 10:07:58;;;;;;;97.63;51.15;;;;;;;7.87;nan;95159.50;5049614;28;20201;-61
2022/12/22 10:10:27;;;;;;;91.60;47.15;;;;;;;7.86;nan;95152.78;5072915;28;20201;-61
2022/12/22 10:12:57;;;;;;;86.93;46.92;;;;;;;8.01;nan;95156.66;5087235;28;20201;-60
2022/12/22 10:15:25;;;;;;;86.57;48.03;;;;;;;7.90;nan;95148.50;5086289;28;20713;-61
2022/12/22 10:17:53;;;;;;;88.75;48.53;;;;;;;8.05;nan;95143.91;5086733;28;20205;-60
2022/12/22 10:20:25;;;;;;;89.68;48.60;;;;;;;8.05;nan;95143.09;5086623;28;20627;-61
2022/12/22 10:22:54;;;;;;;75.85;45.30;;;;;;;8.09;nan;95120.22;5086622;28;20229;-61
2022/12/22 10:25:29;;;;;;;96.72;48.72;;;;;;;8.15;nan;95114.19;5087343;28;20783;-61
2022/12/22 10:27:59;;;;;;;88.05;46.72;;;;;;;8.32;nan;95118.84;5087174;28;20197;-61
2022/12/22 10:30:29;;;;;;;83.28;46.47;;;;;;;8.28;nan;95109.66;5086795;28;20255;-61
2022/12/22 10:33:07;;;;;;;83.93;46.20;;;;;;;8.36;nan;95107.81;5086120;28;20197;-62
2022/12/22 10:35:46;;;;;;;92.75;48.08;;;;;;;8.29;nan;95103.72;5086503;28;20190;-63
2022/12/22 10:38:21;;;;;;;97.93;47.95;;;;;;;8.44;nan;95109.25;5086111;28;20201;-61
2022/12/22 10:40:50;;;;;;;90.22;48.33;;;;;;;8.34;nan;95101.94;5090239;28;20224;-60
2022/12/22 10:43:27;;;;;;;94.85;47.80;;;;;;;8.35;nan;95091.78;5091488;28;20198;-60
2022/12/22 10:45:56;;;;;;;80.18;46.67;;;;;;;8.51;nan;95089.69;5092269;28;20221;-61
2022/12/22 10:48:28;;;;;;;91.38;47.45;;;;;;;8.68;nan;95090.06;5093684;28;20194;-62
2022/12/22 10:50:56;;;;;;;98.50;48.53;;;;;;;8.62;nan;95080.13;5093664;28;20197;-62
2022/12/22 10:53:39;;;;;;;83.28;47.95;;;;;;;8.66;nan;95078.34;5093014;28;20205;-62
2022/12/22 10:56:08;;;;;;;81.15;45.80;;;;;;;8.71;nan;95082.41;5093500;28;20197;-61
2022/12/22 10:58:48;;;;;;;93.20;48.63;;;;;;;8.70;nan;95083.28;5093818;28;20209;-61
2022/12/22 11:01:23;;;;;;;93.38;50.50;;;;;;;8.54;nan;95079.47;5093515;28;20246;-62
2022/12/22 11:03:50;;;;;;;93.50;49.10;;;;;;;8.49;nan;95073.69;5093807;28;20197;-63
2022/12/22 11:06:17;;;;;;;95.22;51.42;;;;;;;8.38;nan;95071.44;5093328;28;20290;-62
2022/12/22 11:08:44;;;;;;;92.45;50.83;;;;;;;8.37;nan;95068.94;5093720;28;20225;-61
2022/12/22 11:11:18;;;;;;;93.72;50.47;;;;;;;8.34;nan;95076.63;5093235;28;20201;-62
2022/12/22 11:13:57;;;;;;;102.18;50.00;;;;;;;8.07;nan;95071.31;5092444;28;20245;-63
2022/12/22 11:16:29;;;;;;;92.20;51.83;;;;;;;7.67;nan;95060.47;5093279;28;20869;-62
2022/12/22 11:19:26;;;;;;;100.15;52.55;;;;;;;7.46;nan;95065.09;5093306;28;20289;-62
2022/12/22 11:22:03;;;;;;;92.22;52.10;;;;;;;7.39;nan;95061.06;5093378;28;20217;-61
2022/12/22 11:24:38;;;;;;;125.95;58.22;;;;;;;7.55;nan;95053.13;5093347;28;20197;-61
2022/12/22 11:27:20;;;;;;;104.03;52.67;;;;;;;7.76;nan;95055.19;5093640;28;20208;-62
2022/12/22 11:30:03;;;;;;;100.80;53.10;;;;;;;7.86;nan;95041.47;5092959;28;20204;-63
2022/12/22 11:32:49;;;;;;;94.75;50.30;;;;;;;7.95;nan;95046.28;5092995;28;20198;-62
2022/12/22 11:35:25;;;;;;;95.45;52.10;;;;;;;8.04;nan;95050.31;5093156;28;20204;-61
2022/12/22 11:37:56;;;;;;;99.57;52.97;;;;;;;8.02;nan;95044.44;5092839;28;20204;-62
2022/12/22 11:40:31;;;;;;;108.88;53.85;;;;;;;7.90;nan;95039.69;5093009;28;20201;-61
2022/12/22 11:43:17;;;;;;;95.75;50.72;;;;;;;7.88;nan;95046.50;5092981;28;20204;-61
2022/12/22 11:45:57;;;;;;;98.45;50.85;;;;;;;7.86;nan;95026.28;5092737;28;20228;-61
2022/12/22 11:48:46;;;;;;;112.88;52.47;;;;;;;8.07;nan;95040.13;5092885;28;20209;-61
2022/12/22 11:51:23;;;;;;;97.25;52.17;;;;;;;8.15;nan;95038.25;5052913;28;20198;-62
2022/12/22 11:54:15;;;;;;;97.28;51.55;;;;;;;8.20;nan;95026.28;5092598;28;20197;-61
2022/12/22 11:56:46;;;;;;;104.45;52.47;;;;;;;8.31;nan;95036.16;5092488;28;20201;-61
2022/12/22 11:59:44;;;;;;;96.35;53.28;;;;;;;8.28;nan;95023.56;5092633;28;20863;-60
2022/12/22 12:02:50;;;;;;;98.63;56.28;;;;;;;8.27;nan;95022.72;5092679;28;20267;-60
2022/12/22 12:05:30;;;;;;;110.97;58.40;;;;;;;8.31;nan;95031.91;5092176;28;20221;-61
2022/12/22 12:08:04;;;;;;;106.88;55.17;;;;;;;8.43;nan;95008.81;5092480;28;20209;-62
2022/12/22 12:10:36;;;;;;;95.53;50.97;;;;;;;8.46;nan;95018.88;5092429;28;20205;-62
2022/12/22 12:13:13;;;;;;;105.82;54.88;;;;;;;8.33;nan;95009.13;5092133;28;20726;-62
2022/12/22 12:15:47;;;;;;;92.38;52.25;;;;;;;8.46;nan;95012.97;5092130;28;20233;-62
2022/12/22 12:18:36;;;;;;;101.35;52.65;;;;;;;8.36;nan;95001.44;5092117;28;20238;-60
2022/12/22 12:21:20;;;;;;;91.03;52.67;;;;;;;8.26;nan;95007.56;5092001;28;20200;-61
2022/12/22 12:24:03;;;;;;;114.72;60.25;;;;;;;8.14;nan;95004.50;5091948;28;20204;-61
2022/12/22 12:26:33;;;;;;;98.13;55.58;;;;;;;8.30;nan;95011.69;5092367;28;20660;-62
2022/12/22 12:29:11;;;;;;;97.57;54.88;;;;;;;8.19;nan;95010.25;5091848;28;20233;-61
2022/12/22 12:31:43;;;;;;;91.43;50.90;;;;;;;8.19;nan;95002.66;5091870;28;20560;-62
2022/12/22 12:34:15;;;;;;;106.03;52.42;;;;;;;8.26;nan;95000.81;5092156;28;20221;-62
2022/12/22 12:36:48;;;;;;;93.18;51.55;;;;;;;8.26;nan;95002.50;5092278;28;20311;-61
2022/12/22 12:39:22;;;;;;;105.45;53.15;;;;;;;8.18;nan;95000.16;5092102;28;20275;-61
2022/12/22 12:41:57;;;;;;;95.72;52.15;;;;;;;8.15;nan;95002.81;5092000;28;20258;-61
2022/12/22 12:44:27;;;;;;;116.10;57.42;;;;;;;8.20;nan;95001.78;5091917;28;20197;-61
2022/12/22 12:47:05;;;;;;;103.82;56.28;;;;;;;8.04;nan;94990.41;5091500;28;20271;-62
2022/12/22 12:49:59;;;;;;;113.95;57.53;;;;;;;8.07;nan;94997.94;5091424;28;20197;-61
2022/12/22 12:53:15;;;;;;;104.80;56.80;;;;;;;8.03;nan;94995.50;5091872;28;20208;-62
2022/12/22 12:55:59;;;;;;;103.72;53.20;;;;;;;7.88;nan;94996.72;5091560;28;20232;-60
2022/12/22 12:58:49;;;;;;;107.63;57.40;;;;;;;7.92;nan;95000.81;5091547;28;20266;-61
2022/12/22 13:01:48;;;;;;;103.85;54.80;;;;;;;7.84;nan;94990.06;5090655;28;20198;-60
2022/12/22 13:05:12;;;;;;;117.18;58.00;;;;;;;7.72;nan;94965.03;5084140;28;20202;-62
2022/12/22 13:08:16;;;;;;;108.78;56.45;;;;;;;7.76;nan;94994.47;5091130;28;20211;-62
2022/12/22 13:10:48;;;;;;;100.10;54.03;;;;;;;7.77;nan;94996.13;5090835;28;20197;-61
2022/12/22 13:13:46;;;;;;;129.63;61.55;;;;;;;7.78;nan;94987.69;5091464;28;20202;-61
2022/12/22 13:16:25;;;;;;;115.70;62.45;;;;;;;7.69;nan;94995.47;5091107;28;20652;-62
2022/12/22 13:18:57;;;;;;;118.00;62.58;;;;;;;7.64;nan;94982.13;5091145;28;20212;-61
2022/12/22 13:21:27;;;;;;;119.85;63.17;;;;;;;7.70;nan;94981.97;5091126;28;20201;-62
2022/12/22 13:24:01;;;;;;;126.57;62.15;;;;;;;7.67;nan;94980.31;5090911;28;20559;-62
2022/12/22 13:26:33;;;;;;;125.20;64.63;;;;;;;7.66;nan;94982.94;5090868;28;20221;-62
2022/12/22 13:29:01;;;;;;;114.70;62.83;;;;;;;7.53;nan;94981.53;5090998;28;20201;-63
2022/12/22 13:31:34;;;;;;;121.00;63.95;;;;;;;7.53;nan;94981.53;5091016;28;20667;-61
2022/12/22 13:34:07;;;;;;;114.28;59.05;;;;;;;7.55;nan;94984.84;5090629;28;20225;-61
2022/12/22 13:36:34;;;;;;;101.00;56.05;;;;;;;7.58;nan;94982.25;5090986;28;20599;-62
2022/12/22 13:39:05;;;;;;;116.32;58.05;;;;;;;7.63;nan;94983.00;5090359;28;20745;-61
2022/12/22 13:41:33;;;;;;;99.20;53.88;;;;;;;7.72;nan;94972.63;5090617;28;20205;-62
2022/12/22 13:44:05;;;;;;;109.82;56.63;;;;;;;7.73;nan;94969.25;5090397;28;20205;-63
2022/12/22 13:46:34;;;;;;;89.20;50.30;;;;;;;7.72;nan;94973.47;5090598;28;20667;-61
2022/12/22 13:49:03;;;;;;;96.75;53.17;;;;;;;7.69;nan;94972.72;5090455;28;20230;-61
2022/12/22 13:51:34;;;;;;;102.50;50.40;;;;;;;7.68;nan;94961.75;5090403;28;20240;-61
2022/12/22 13:54:12;;;;;;;107.13;53.50;;;;;;;7.75;nan;94962.44;5090795;28;20224;-62
2022/12/22 13:56:43;;;;;;;108.97;50.97;;;;;;;7.76;nan;94964.13;5085324;28;20588;-62
2022/12/22 13:59:21;;;;;;;103.60;52.05;;;;;;;7.75;nan;94963.28;5090571;28;20197;-62
2022/12/22 14:01:49;;;;;;;86.93;49.83;;;;;;;7.67;nan;94959.28;5089804;28;20586;-62
2022/12/22 14:04:16;;;;;;;105.78;49.22;;;;;;;7.68;nan;94966.00;5090107;28;20288;-60
2022/12/22 14:06:43;;;;;;;100.50;49.22;;;;;;;7.62;nan;94963.63;5090080;28;20274;-62
2022/12/22 14:09:15;;;;;;;108.50;51.05;;;;;;;7.59;nan;94953.56;5090374;28;20197;-61
2022/12/22 14:11:46;;;;;;;94.78;48.60;;;;;;;7.57;nan;94963.72;5089448;28;20675;-61
2022/12/22 14:14:18;;;;;;;109.85;50.72;;;;;;;7.65;nan;94950.91;5091503;28;20233;-62
2022/12/22 14:16:48;;;;;;;87.97;46.78;;;;;;;7.69;nan;94952.47;5094598;28;20221;-60
2022/12/22 14:19:16;;;;;;;87.82;49.53;;;;;;;7.54;nan;94956.22;5094341;28;20202;-62
2022/12/22 14:21:44;;;;;;;88.72;48.08;;;;;;;7.47;nan;94952.97;5094042;28;20583;-62
2022/12/22 14:24:18;;;;;;;88.50;50.13;;;;;;;7.36;nan;94954.13;5094201;28;20194;-59
2022/12/22 14:26:46;;;;;;;95.38;48.38;;;;;;;7.26;nan;94952.66;5093869;28;20225;-61
2022/12/22 14:29:16;;;;;;;92.10;49.00;;;;;;;7.12;nan;94960.56;5094429;28;20198;-62
2022/12/22 14:31:54;;;;;;;96.53;48.58;;;;;;;7.03;nan;94951.47;5093866;28;20224;-60
2022/12/22 14:34:29;;;;;;;86.78;46.47;;;;;;;7.01;nan;94958.25;5094161;28;20214;-61
2022/12/22 14:36:56;;;;;;;98.65;47.42;;;;;;;6.94;nan;94955.88;5093755;28;20607;-61
2022/12/22 14:39:26;;;;;;;86.13;44.88;;;;;;;6.90;nan;94955.13;5094099;28;20201;-61
2022/12/22 14:41:55;;;;;;;90.80;46.17;;;;;;;6.83;nan;94959.47;5091855;28;20201;-62
2022/12/22 14:44:24;;;;;;;90.10;44.08;;;;;;;6.70;nan;94960.56;5093467;28;20194;-60
2022/12/22 14:47:14;;;;;;;94.20;46.63;;;;;;;6.57;nan;94961.69;5093355;28;20221;-62
2022/12/22 14:49:47;;;;;;;102.40;47.65;;;;;;;6.49;nan;94954.25;5093529;28;20201;-61
2022/12/22 14:52:21;;;;;;;90.55;46.17;;;;;;;6.43;nan;94961.13;5093395;28;20198;-62
2022/12/22 14:54:52;;;;;;;94.85;46.00;;;;;;;6.31;nan;94956.31;5093744;28;20297;-61
2022/12/22 14:57:25;;;;;;;80.82;45.45;;;;;;;6.26;nan;94973.22;5093407;28;20208;-61
2022/12/22 15:00:00;;;;;;;90.65;46.92;;;;;;;6.23;nan;94973.28;5093422;28;20198;-61
2022/12/22 15:02:30;;;;;;;91.75;45.67;;;;;;;6.08;nan;94977.75;5092781;28;20227;-61
2022/12/22 15:05:14;;;;;;;104.90;48.25;;;;;;;5.97;nan;94978.78;5093150;28;20740;-63
2022/12/22 15:07:47;;;;;;;92.88;45.55;;;;;;;5.84;nan;94970.56;5093229;28;20316;-61
2022/12/22 15:10:15;;;;;;;91.32;46.20;;;;;;;5.70;nan;94967.44;5092322;28;20289;-61
2022/12/22 15:12:42;;;;;;;96.75;50.58;;;;;;;5.66;nan;94970.88;5093089;28;20625;-61
2022/12/22 15:15:15;;;;;;;91.80;47.92;;;;;;;5.53;nan;94971.91;5092348;28;20238;-61
2022/12/22 15:17:44;;;;;;;103.63;47.75;;;;;;;5.43;nan;94974.59;5092898;28;20667;-61
2022/12/22 15:20:19;;;;;;;118.80;52.85;;;;;;;5.36;nan;94969.66;5093083;28;20259;-61
2022/12/22 15:22:46;;;;;;;109.40;48.63;;;;;;;5.36;nan;94972.19;5092897;28;20257;-61
2022/12/22 15:25:16;;;;;;;98.85;48.80;;;;;;;5.23;nan;94970.69;5092309;28;20201;-62
2022/12/22 15:27:43;;;;;;;111.82;53.50;;;;;;;5.20;nan;94983.34;5092881;28;20592;-62
2022/12/22 15:30:12;;;;;;;112.55;48.17;;;;;;;5.17;nan;94988.44;5092713;28;20198;-63
2022/12/22 15:32:40;;;;;;;96.60;49.05;;;;;;;5.10;nan;94980.13;5092836;28;20220;-61
2022/12/22 15:35:16;;;;;;;96.38;45.88;;;;;;;5.02;nan;94971.81;5092682;28;20224;-61
2022/12/22 15:37:43;;;;;;;94.25;46.78;;;;;;;4.95;nan;94986.19;5092564;28;20586;-63